Time;durP1;ratioP1;P1;durP2;ratioP2;P2;SDS_P1;SDS_P2;PMS_P1;PMS_P2;Temp;Humidity;BMP_temperature;BMP_pressure;BME280_temperature;BME280_humidity;BME280_pressure;Samples;Min_cycle;Max_cycle;Signal;HPM_P1;HPM_P2
2022/09/30 00:01:38;;;;;;;2.97;2.70;;;10.20;99.90;;;;;;5047776;28;20454;-69
2022/09/30 00:04:05;;;;;;;2.80;2.50;;;10.10;99.90;;;;;;5041576;28;20519;-70
2022/09/30 00:06:31;;;;;;;3.67;2.20;;;10.00;99.90;;;;;;5049814;28;20462;-70
2022/09/30 00:08:57;;;;;;;1.93;1.83;;;10.00;99.90;;;;;;5042482;28;20503;-70
2022/09/30 00:11:27;;;;;;;2.60;2.40;;;10.00;99.90;;;;;;5047450;28;20466;-69
2022/09/30 00:13:54;;;;;;;2.63;2.43;;;10.00;99.90;;;;;;5030386;28;20517;-70
2022/09/30 00:16:21;;;;;;;7.63;2.60;;;10.00;99.90;;;;;;5048111;28;20561;-70
2022/09/30 00:18:48;;;;;;;3.70;2.40;;;9.90;99.90;;;;;;5048856;28;20455;-70
2022/09/30 00:21:15;;;;;;;3.60;2.37;;;10.00;99.90;;;;;;5042150;28;20457;-70
2022/09/30 00:23:42;;;;;;;3.73;2.90;;;9.90;99.90;;;;;;5038986;28;20470;-70
2022/09/30 00:26:11;;;;;;;3.40;2.80;;;9.90;99.90;;;;;;5047947;28;20545;-70
2022/09/30 00:28:38;;;;;;;2.50;2.30;;;9.90;99.90;;;;;;5053458;28;20493;-70
2022/09/30 00:31:08;;;;;;;3.87;3.03;;;9.90;99.90;;;;;;5049191;28;20464;-68
2022/09/30 00:33:34;;;;;;;3.37;2.87;;;9.90;99.90;;;;;;5037380;28;20543;-69
2022/09/30 00:36:01;;;;;;;3.87;2.53;;;9.90;99.90;;;;;;5043089;28;20465;-69
2022/09/30 00:38:27;;;;;;;4.00;2.63;;;9.90;99.90;;;;;;5044324;28;20454;-69
2022/09/30 00:40:55;;;;;;;3.93;2.60;;;9.80;99.90;;;;;;5047527;28;20462;-70
2022/09/30 00:43:40;;;;;;;2.90;2.60;;;9.80;99.90;;;;;;5046710;28;20265;-70
2022/09/30 00:46:15;;;;;;;3.80;2.70;;;9.90;99.90;;;;;;5027965;28;20501;-71
2022/09/30 00:48:42;;;;;;;2.87;2.20;;;9.90;99.90;;;;;;5042667;28;20520;-70
2022/09/30 00:51:08;;;;;;;2.67;2.47;;;9.90;99.90;;;;;;5040585;28;20526;-70
2022/09/30 00:53:44;;;;;;;2.43;2.23;;;9.90;99.90;;;;;;5046218;28;20881;-69
2022/09/30 00:56:33;;;;;;;3.90;3.20;;;9.90;99.90;;;;;;5045496;28;20536;-70
2022/09/30 00:59:06;;;;;;;3.90;2.37;;;9.80;99.90;;;;;;5046046;28;20446;-69
2022/09/30 01:01:31;;;;;;;2.47;2.27;;;9.80;99.90;;;;;;5048474;28;20964;-71
2022/09/30 01:04:05;;;;;;;2.93;2.20;;;9.80;99.90;;;;;;5042124;28;20463;-70
2022/09/30 01:06:30;;;;;;;3.90;2.40;;;9.80;99.90;;;;;;5031051;28;20232;-70
2022/09/30 01:08:59;;;;;;;3.60;3.07;;;9.80;99.90;;;;;;5028304;28;20455;-69
2022/09/30 01:11:27;;;;;;;3.80;2.60;;;9.80;99.90;;;;;;5038315;28;20234;-70
2022/09/30 01:13:57;;;;;;;3.60;2.77;;;9.80;99.90;;;;;;5046357;28;20470;-70
2022/09/30 01:17:05;;;;;;;3.87;2.90;;;9.70;99.90;;;;;;5031157;28;20978;-70
2022/09/30 01:19:36;;;;;;;3.53;2.50;;;9.70;99.90;;;;;;5030569;28;20466;-69
2022/09/30 01:22:08;;;;;;;3.30;2.90;;;9.70;99.90;;;;;;5029416;28;20455;-69
2022/09/30 01:24:58;;;;;;;3.27;2.80;;;9.70;99.90;;;;;;5041093;28;20462;-70
2022/09/30 01:27:38;;;;;;;2.83;2.60;;;9.70;99.90;;;;;;5050245;28;20500;-70
2022/09/30 01:30:20;;;;;;;2.80;2.40;;;9.60;99.90;;;;;;5046287;28;20529;-70
2022/09/30 01:33:02;;;;;;;3.10;2.10;;;9.60;99.90;;;;;;5040194;28;20564;-69
2022/09/30 01:35:41;;;;;;;2.67;2.43;;;9.60;99.90;;;;;;5041124;28;20453;-69
2022/09/30 01:38:16;;;;;;;2.60;2.40;;;9.60;99.90;;;;;;5049451;28;20477;-70
2022/09/30 01:41:03;;;;;;;2.80;2.43;;;9.60;99.90;;;;;;5052784;28;20535;-70
2022/09/30 01:43:58;;;;;;;3.60;3.07;;;9.50;99.90;;;;;;5034111;28;20454;-69
2022/09/30 01:46:43;;;;;;;3.77;3.00;;;9.50;99.90;;;;;;5050735;28;20446;-69
2022/09/30 01:49:11;;;;;;;6.20;2.90;;;9.40;99.90;;;;;;5050248;28;20450;-70
2022/09/30 01:51:43;;;;;;;3.00;2.70;;;9.50;99.90;;;;;;5043984;28;20458;-69
2022/09/30 01:54:29;;;;;;;6.43;3.00;;;9.30;99.90;;;;;;5049652;28;20570;-69
2022/09/30 01:57:07;;;;;;;3.47;2.43;;;9.40;99.90;;;;;;5034597;28;20531;-69
2022/09/30 01:59:45;;;;;;;3.07;2.40;;;9.40;99.90;;;;;;5048369;28;20457;-70
2022/09/30 02:02:14;;;;;;;3.20;2.30;;;9.40;99.90;;;;;;5046376;28;20464;-69
2022/09/30 02:04:48;;;;;;;3.10;2.77;;;9.40;99.90;;;;;;5050511;28;20446;-70
2022/09/30 02:07:34;;;;;;;3.23;2.07;;;9.40;99.90;;;;;;5046101;28;20454;-69
2022/09/30 02:10:06;;;;;;;2.60;2.40;;;9.30;99.90;;;;;;5033812;28;20486;-70
2022/09/30 02:12:39;;;;;;;3.07;2.53;;;9.30;99.90;;;;;;5050803;28;20545;-70
2022/09/30 02:15:09;;;;;;;5.60;2.70;;;9.30;99.90;;;;;;5043710;28;20478;-69
2022/09/30 02:17:42;;;;;;;2.30;2.10;;;9.30;99.90;;;;;;5050737;28;20450;-69
2022/09/30 02:20:16;;;;;;;2.20;2.00;;;9.30;99.90;;;;;;5047652;28;20485;-70
2022/09/30 02:22:46;;;;;;;2.27;2.07;;;9.20;99.90;;;;;;5043636;28;20458;-70
2022/09/30 02:25:35;;;;;;;2.40;2.20;;;9.20;99.90;;;;;;5050068;28;21029;-69
2022/09/30 02:28:07;;;;;;;2.43;2.23;;;9.20;99.90;;;;;;5053538;28;20462;-70
2022/09/30 02:30:37;;;;;;;2.73;2.40;;;9.10;99.90;;;;;;5050258;28;20446;-69
2022/09/30 02:33:08;;;;;;;2.70;1.90;;;9.00;99.90;;;;;;5049623;28;20989;-69
2022/09/30 02:35:42;;;;;;;2.47;2.23;;;8.80;99.90;;;;;;5048791;28;20859;-70
2022/09/30 02:38:17;;;;;;;3.00;2.57;;;8.90;99.90;;;;;;5049371;28;20450;-69
2022/09/30 02:40:47;;;;;;;3.10;2.47;;;8.90;99.90;;;;;;5049854;28;20510;-69
2022/09/30 02:43:13;;;;;;;2.40;2.07;;;9.00;99.90;;;;;;5048905;28;20458;-69
2022/09/30 02:46:05;;;;;;;2.33;2.13;;;9.00;99.90;;;;;;5049029;28;20454;-70
2022/09/30 02:48:43;;;;;;;3.90;2.40;;;9.00;99.90;;;;;;5041654;28;20451;-69
2022/09/30 02:51:15;;;;;;;3.47;2.50;;;9.00;99.90;;;;;;5049355;28;20446;-69
2022/09/30 02:53:49;;;;;;;4.83;2.63;;;8.90;99.90;;;;;;5032490;28;20466;-70
2022/09/30 02:56:37;;;;;;;2.90;2.40;;;8.90;99.90;;;;;;5046173;28;20837;-69
2022/09/30 02:59:03;;;;;;;4.77;2.90;;;8.80;99.90;;;;;;5044736;28;20882;-69
2022/09/30 03:01:29;;;;;;;4.50;3.30;;;8.80;99.90;;;;;;5049812;28;20473;-70
2022/09/30 03:04:04;;;;;;;3.30;2.30;;;8.80;99.90;;;;;;5049181;28;20486;-70
2022/09/30 03:06:31;;;;;;;2.40;2.20;;;8.80;99.90;;;;;;5061373;28;20972;-69
2022/09/30 03:08:56;;;;;;;4.30;2.57;;;8.80;99.90;;;;;;5050679;28;20458;-70
2022/09/30 03:11:24;;;;;;;2.80;2.10;;;8.80;99.90;;;;;;5064519;28;20461;-69
2022/09/30 03:14:06;;;;;;;3.83;2.47;;;8.80;99.90;;;;;;5042037;28;20314;-69
2022/09/30 03:16:50;;;;;;;3.63;2.93;;;8.80;99.90;;;;;;5048294;28;20466;-70
2022/09/30 03:19:39;;;;;;;3.20;2.37;;;8.70;99.90;;;;;;5050070;28;20462;-69
2022/09/30 03:22:23;;;;;;;2.67;2.47;;;8.60;99.90;;;;;;5049566;28;20480;-71
2022/09/30 03:24:58;;;;;;;5.10;3.00;;;8.60;99.90;;;;;;5046545;28;20455;-70
2022/09/30 03:27:51;;;;;;;3.33;3.03;;;8.70;99.90;;;;;;5042098;28;20506;-70
2022/09/30 03:30:20;;;;;;;7.93;4.57;;;8.70;99.90;;;;;;5047470;28;20950;-70
2022/09/30 03:33:11;;;;;;;7.43;5.20;;;8.60;99.90;;;;;;5048908;28;20466;-70
2022/09/30 03:35:55;;;;;;;4.93;3.63;;;8.60;99.90;;;;;;5045935;28;20450;-70
2022/09/30 03:38:55;;;;;;;3.33;2.90;;;8.60;99.90;;;;;;5049841;28;20500;-68
2022/09/30 03:41:41;;;;;;;5.03;3.40;;;8.60;99.90;;;;;;5051696;28;20453;-71
2022/09/30 03:44:11;;;;;;;3.00;2.47;;;8.60;99.90;;;;;;5027812;28;20454;-72
2022/09/30 03:46:48;;;;;;;4.83;3.03;;;8.50;99.90;;;;;;5047295;28;20512;-71
2022/09/30 03:49:21;;;;;;;2.50;2.30;;;8.40;99.90;;;;;;5048491;28;20526;-70
2022/09/30 03:51:46;;;;;;;3.50;2.67;;;8.40;99.90;;;;;;5031324;28;20443;-70
2022/09/30 03:54:13;;;;;;;5.63;3.50;;;8.50;99.90;;;;;;5045405;28;20524;-71
2022/09/30 03:56:41;;;;;;;5.30;3.27;;;8.50;99.90;;;;;;5042650;28;20299;-70
2022/09/30 03:59:29;;;;;;;7.33;3.13;;;8.50;99.90;;;;;;5036409;28;20466;-71
2022/09/30 04:01:58;;;;;;;4.37;3.33;;;8.40;99.90;;;;;;5028513;28;20484;-71
2022/09/30 04:04:24;;;;;;;4.10;3.20;;;8.40;99.90;;;;;;5045372;28;20985;-71
2022/09/30 04:06:49;;;;;;;2.70;2.30;;;8.40;99.90;;;;;;5045452;28;20454;-70
2022/09/30 04:09:15;;;;;;;2.63;2.43;;;8.40;99.90;;;;;;5047520;28;20231;-70
2022/09/30 04:11:41;;;;;;;2.87;2.57;;;8.40;99.90;;;;;;5049421;28;20234;-69
2022/09/30 04:14:07;;;;;;;3.80;2.87;;;8.40;99.90;;;;;;5046193;28;20231;-69
2022/09/30 04:16:33;;;;;;;2.30;2.20;;;8.30;99.90;;;;;;5049464;28;20596;-69
2022/09/30 04:18:59;;;;;;;3.23;2.60;;;8.30;99.90;;;;;;5034613;28;20546;-70
2022/09/30 04:21:27;;;;;;;3.70;2.10;;;8.30;99.90;;;;;;5051494;28;20232;-70
2022/09/30 04:23:54;;;;;;;3.07;2.30;;;8.30;99.90;;;;;;5046574;28;20224;-69
2022/09/30 04:26:20;;;;;;;3.77;2.70;;;8.30;99.90;;;;;;5029338;28;21096;-70
2022/09/30 04:28:46;;;;;;;2.33;2.13;;;8.30;99.90;;;;;;5044227;28;20467;-69
2022/09/30 04:31:14;;;;;;;2.70;2.50;;;8.20;99.90;;;;;;5038228;28;20485;-70
2022/09/30 04:33:39;;;;;;;4.47;2.30;;;8.20;99.90;;;;;;5020981;28;20467;-70
2022/09/30 04:36:05;;;;;;;2.50;2.30;;;8.20;99.90;;;;;;5039634;28;20462;-69
2022/09/30 04:38:33;;;;;;;3.43;2.40;;;8.20;99.90;;;;;;5045713;28;20239;-69
2022/09/30 04:41:02;;;;;;;3.20;2.47;;;8.10;99.90;;;;;;5044426;28;20454;-69
2022/09/30 04:43:28;;;;;;;2.80;2.00;;;8.10;99.90;;;;;;5041875;28;20466;-70
2022/09/30 04:45:53;;;;;;;2.00;1.80;;;8.00;99.90;;;;;;5030954;28;20551;-69
2022/09/30 04:48:21;;;;;;;3.10;2.43;;;8.00;99.90;;;;;;5027042;28;20307;-69
2022/09/30 04:50:47;;;;;;;2.63;2.43;;;8.00;99.90;;;;;;5042803;28;20220;-69
2022/09/30 04:53:13;;;;;;;3.40;2.50;;;8.00;99.90;;;;;;5037507;28;20573;-70
2022/09/30 04:55:40;;;;;;;3.03;2.63;;;8.00;99.90;;;;;;5045579;28;20458;-70
2022/09/30 04:58:06;;;;;;;3.10;2.70;;;8.00;99.90;;;;;;5041606;28;20497;-71
2022/09/30 05:00:31;;;;;;;5.23;2.53;;;8.00;99.90;;;;;;5040956;28;20442;-69
2022/09/30 05:02:57;;;;;;;2.93;2.37;;;8.00;99.90;;;;;;5026959;28;20216;-69
2022/09/30 05:05:23;;;;;;;3.37;2.63;;;8.00;99.90;;;;;;5039824;28;20220;-68
2022/09/30 05:07:49;;;;;;;6.03;3.10;;;8.00;99.90;;;;;;5031217;28;20295;-68
2022/09/30 05:10:15;;;;;;;3.03;2.53;;;8.00;99.90;;;;;;5033370;28;20271;-69
2022/09/30 05:12:41;;;;;;;6.33;3.60;;;7.90;99.90;;;;;;5047818;28;20224;-70
2022/09/30 05:15:07;;;;;;;2.77;2.57;;;7.90;99.90;;;;;;5060400;28;20533;-70
2022/09/30 05:17:34;;;;;;;7.17;3.83;;;7.90;99.90;;;;;;5049320;28;20465;-70
2022/09/30 05:20:00;;;;;;;3.00;2.60;;;7.90;99.90;;;;;;5045029;28;20483;-69
2022/09/30 05:22:26;;;;;;;4.13;2.87;;;7.90;99.90;;;;;;5033409;28;20558;-69
2022/09/30 05:24:52;;;;;;;4.60;3.40;;;7.90;99.90;;;;;;5047750;28;20215;-69
2022/09/30 05:27:19;;;;;;;5.37;3.50;;;7.90;99.90;;;;;;5041641;28;20544;-69
2022/09/30 05:29:44;;;;;;;5.20;3.70;;;7.90;99.90;;;;;;5033588;28;20207;-69
2022/09/30 05:32:10;;;;;;;3.93;2.83;;;7.90;99.90;;;;;;5041051;28;21005;-69
2022/09/30 05:34:37;;;;;;;3.77;2.70;;;7.80;99.90;;;;;;5045971;28;20594;-69
2022/09/30 05:37:04;;;;;;;3.20;2.60;;;7.80;99.90;;;;;;5040522;28;20501;-69
2022/09/30 05:39:30;;;;;;;2.50;2.30;;;7.80;99.90;;;;;;5032955;28;20836;-72
2022/09/30 05:41:56;;;;;;;2.43;2.20;;;7.80;99.90;;;;;;5036135;28;20458;-69
2022/09/30 05:44:22;;;;;;;2.83;2.40;;;7.80;99.90;;;;;;5035835;28;20219;-70
2022/09/30 05:46:48;;;;;;;4.30;3.17;;;7.80;99.90;;;;;;5036955;28;20589;-70
2022/09/30 05:49:13;;;;;;;5.37;3.10;;;7.80;99.90;;;;;;5035976;28;20240;-70
2022/09/30 05:51:39;;;;;;;4.17;2.97;;;7.70;99.90;;;;;;5034437;28;20232;-70
2022/09/30 05:54:05;;;;;;;3.60;3.30;;;7.70;99.90;;;;;;5058606;28;20298;-70
2022/09/30 05:56:33;;;;;;;3.63;2.77;;;7.70;99.90;;;;;;5038794;28;20228;-70
2022/09/30 05:58:59;;;;;;;5.17;3.27;;;7.70;99.90;;;;;;5038826;28;20458;-70
2022/09/30 06:01:25;;;;;;;6.83;3.50;;;7.70;99.90;;;;;;5037937;28;21069;-70
2022/09/30 06:03:51;;;;;;;8.10;5.83;;;7.70;99.90;;;;;;5049756;28;20558;-70
2022/09/30 06:06:18;;;;;;;9.80;6.40;;;7.70;99.90;;;;;;5034803;28;20772;-69
2022/09/30 06:08:43;;;;;;;10.13;4.50;;;7.70;99.90;;;;;;5041389;28;20240;-70
2022/09/30 06:11:12;;;;;;;3.90;3.60;;;7.70;99.90;;;;;;5036029;28;20563;-70
2022/09/30 06:13:38;;;;;;;4.20;3.20;;;7.60;99.90;;;;;;5033677;28;20242;-70
2022/09/30 06:16:05;;;;;;;5.50;3.60;;;7.60;99.90;;;;;;5038825;28;20895;-70
2022/09/30 06:18:31;;;;;;;3.47;3.10;;;7.60;99.90;;;;;;5017655;28;20455;-70
2022/09/30 06:20:57;;;;;;;4.10;3.70;;;7.60;99.90;;;;;;5036334;28;20462;-71
2022/09/30 06:23:24;;;;;;;4.17;3.77;;;7.60;99.90;;;;;;5033258;28;20212;-70
2022/09/30 06:25:50;;;;;;;4.60;3.80;;;7.60;99.90;;;;;;5041547;28;20470;-70
2022/09/30 06:28:16;;;;;;;8.43;4.90;;;7.60;99.90;;;;;;5031652;28;21093;-70
2022/09/30 06:30:43;;;;;;;4.10;3.60;;;7.60;99.90;;;;;;5038943;28;20462;-69
2022/09/30 06:33:09;;;;;;;4.47;3.33;;;7.60;99.90;;;;;;5032286;28;20482;-70
2022/09/30 06:35:35;;;;;;;5.77;3.50;;;7.70;99.90;;;;;;5035198;28;20458;-69
2022/09/30 06:38:01;;;;;;;6.57;4.13;;;7.70;99.90;;;;;;5034644;28;20955;-71
2022/09/30 06:40:27;;;;;;;8.40;5.00;;;7.70;99.90;;;;;;5028453;28;21022;-69
2022/09/30 06:43:03;;;;;;;8.20;5.50;;;7.70;99.90;;;;;;5034519;28;20543;-69
2022/09/30 06:45:31;;;;;;;10.90;7.17;;;7.70;99.90;;;;;;5032378;28;20226;-69
2022/09/30 06:48:01;;;;;;;15.60;8.17;;;7.70;99.90;;;;;;5039660;28;20882;-70
2022/09/30 06:50:31;;;;;;;15.03;7.93;;;7.70;99.90;;;;;;5031308;28;20539;-70
2022/09/30 06:53:05;;;;;;;14.63;6.90;;;7.70;99.90;;;;;;5033124;28;20458;-69
2022/09/30 06:55:31;;;;;;;9.83;6.03;;;7.80;99.90;;;;;;5027455;28;20552;-70
2022/09/30 06:57:57;;;;;;;9.70;5.80;;;7.80;99.90;;;;;;5036415;28;20462;-70
2022/09/30 07:00:24;;;;;;;10.57;5.60;;;7.90;99.90;;;;;;5029882;28;20459;-68
2022/09/30 07:02:50;;;;;;;10.70;6.10;;;7.90;99.90;;;;;;5041537;28;20840;-69
2022/09/30 07:05:16;;;;;;;6.57;4.73;;;7.90;99.90;;;;;;5023287;28;20466;-69
2022/09/30 07:07:42;;;;;;;5.63;4.10;;;7.90;99.90;;;;;;5022944;28;20285;-69
2022/09/30 07:10:09;;;;;;;5.37;4.50;;;7.90;99.90;;;;;;5029929;28;20469;-70
2022/09/30 07:12:35;;;;;;;5.20;3.90;;;8.00;99.90;;;;;;5046658;28;20483;-69
2022/09/30 07:15:01;;;;;;;3.80;3.40;;;8.00;99.90;;;;;;5033665;28;20470;-70
2022/09/30 07:17:27;;;;;;;5.43;3.60;;;8.00;99.90;;;;;;5033217;28;20462;-70
2022/09/30 07:19:53;;;;;;;4.03;3.30;;;8.00;99.90;;;;;;5042487;28;20469;-70
2022/09/30 07:22:28;;;;;;;4.63;3.50;;;8.10;99.90;;;;;;5027733;28;20457;-69
2022/09/30 07:24:56;;;;;;;4.37;2.83;;;8.10;99.90;;;;;;5021559;28;20311;-69
2022/09/30 07:27:22;;;;;;;3.47;2.80;;;8.10;99.90;;;;;;5029711;28;20462;-70
2022/09/30 07:29:48;;;;;;;4.50;2.80;;;8.10;99.90;;;;;;5016328;28;20936;-69
2022/09/30 07:32:14;;;;;;;4.00;3.60;;;8.20;99.90;;;;;;5028870;28;20810;-70
2022/09/30 07:34:43;;;;;;;4.63;3.70;;;8.20;99.90;;;;;;5028259;28;20490;-69
2022/09/30 07:37:15;;;;;;;3.97;3.20;;;8.30;99.90;;;;;;5026783;28;20501;-71
2022/09/30 07:39:43;;;;;;;5.37;2.93;;;8.30;99.90;;;;;;5031015;28;20465;-69
2022/09/30 07:42:09;;;;;;;3.80;3.30;;;8.50;99.90;;;;;;5030497;28;20462;-70
2022/09/30 07:44:37;;;;;;;4.10;3.40;;;8.60;99.90;;;;;;5039785;28;20469;-69
2022/09/30 07:47:02;;;;;;;8.13;4.50;;;8.60;99.90;;;;;;5038488;28;20497;-69
2022/09/30 07:49:28;;;;;;;14.00;8.73;;;8.70;99.90;;;;;;5047698;28;20471;-69
2022/09/30 07:51:57;;;;;;;25.47;12.50;;;8.80;99.90;;;;;;5033938;28;20292;-69
2022/09/30 07:54:26;;;;;;;21.83;11.13;;;8.90;99.90;;;;;;5029400;28;20482;-70
2022/09/30 07:56:53;;;;;;;14.00;8.30;;;9.00;99.90;;;;;;5033291;28;20499;-69
2022/09/30 07:59:19;;;;;;;7.27;5.20;;;9.10;99.90;;;;;;5023377;28;20847;-70
2022/09/30 08:01:45;;;;;;;5.20;4.53;;;9.10;99.90;;;;;;5032593;28;20892;-70
2022/09/30 08:04:12;;;;;;;6.93;4.50;;;9.20;99.90;;;;;;5036140;28;20508;-69
2022/09/30 08:06:48;;;;;;;5.20;4.00;;;9.30;99.90;;;;;;5032780;28;20465;-69
2022/09/30 08:09:16;;;;;;;7.57;3.63;;;9.40;99.90;;;;;;5026361;28;20889;-70
2022/09/30 08:11:42;;;;;;;4.03;3.63;;;9.50;99.90;;;;;;5032762;28;20833;-69
2022/09/30 08:14:16;;;;;;;4.13;3.73;;;9.50;99.90;;;;;;5034442;28;20482;-70
2022/09/30 08:16:42;;;;;;;4.73;3.03;;;9.60;99.90;;;;;;5034526;28;20220;-70
2022/09/30 08:19:13;;;;;;;4.00;3.40;;;9.70;99.90;;;;;;5033506;28;20470;-71
2022/09/30 08:21:39;;;;;;;3.17;2.87;;;9.80;99.90;;;;;;5040207;28;20524;-70
2022/09/30 08:24:04;;;;;;;3.73;3.30;;;9.90;99.90;;;;;;5025565;28;20467;-69
2022/09/30 08:26:30;;;;;;;2.90;2.53;;;10.20;99.90;;;;;;5028997;28;20224;-70
2022/09/30 08:28:55;;;;;;;5.00;3.47;;;10.70;99.90;;;;;;5036838;28;20220;-69
2022/09/30 08:31:22;;;;;;;5.83;4.30;;;11.80;99.90;;;;;;5042591;28;20710;-71
2022/09/30 08:33:49;;;;;;;11.30;5.57;;;11.70;99.90;;;;;;5026572;28;20334;-70
2022/09/30 08:36:20;;;;;;;6.00;4.77;;;11.50;99.90;;;;;;5037805;28;21002;-70
2022/09/30 08:38:47;;;;;;;6.73;4.97;;;11.40;99.90;;;;;;5041634;28;20520;-71
2022/09/30 08:41:37;;;;;;;7.77;4.57;;;11.20;99.90;;;;;;5042264;28;20469;-71
2022/09/30 08:44:26;;;;;;;6.80;4.87;;;11.10;99.90;;;;;;5042378;28;20509;-70
2022/09/30 08:47:14;;;;;;;6.27;4.87;;;11.10;99.90;;;;;;5046610;28;20834;-70
2022/09/30 08:49:48;;;;;;;8.07;5.60;;;11.10;99.90;;;;;;5054123;28;20459;-71
2022/09/30 08:52:21;;;;;;;6.87;5.20;;;11.10;99.90;;;;;;5044746;28;20454;-70
2022/09/30 08:54:53;;;;;;;9.23;5.40;;;11.20;99.90;;;;;;5046454;28;20470;-70
2022/09/30 08:57:19;;;;;;;5.80;4.90;;;11.20;99.90;;;;;;5041277;28;20459;-70
2022/09/30 08:59:54;;;;;;;6.60;4.60;;;11.30;99.90;;;;;;5041426;28;20534;-70
2022/09/30 09:02:36;;;;;;;6.63;5.57;;;11.40;99.90;;;;;;5043209;28;20466;-70
2022/09/30 09:05:04;;;;;;;10.13;6.03;;;11.40;99.90;;;;;;5046822;28;20450;-70
2022/09/30 09:07:53;;;;;;;9.07;6.13;;;11.50;99.90;;;;;;5052986;28;20454;-70
2022/09/30 09:10:53;;;;;;;8.80;6.00;;;11.50;99.90;;;;;;5050570;28;20535;-70
2022/09/30 09:13:48;;;;;;;7.60;4.70;;;11.70;99.90;;;;;;5018594;28;20621;-71
2022/09/30 09:16:40;;;;;;;7.73;5.37;;;11.70;99.90;;;;;;5037609;28;20454;-70
2022/09/30 09:19:29;;;;;;;7.87;5.57;;;11.80;99.90;;;;;;5038036;28;20860;-70
2022/09/30 09:22:00;;;;;;;8.00;5.83;;;11.80;99.90;;;;;;5040745;28;20465;-70
2022/09/30 09:24:30;;;;;;;6.20;5.20;;;11.90;99.90;;;;;;5022616;28;20470;-71
2022/09/30 09:27:00;;;;;;;8.00;5.90;;;11.90;99.90;;;;;;5038768;28;20471;-70
2022/09/30 09:29:44;;;;;;;7.13;5.47;;;12.10;99.90;;;;;;5042222;28;20481;-71
2022/09/30 09:32:13;;;;;;;8.33;5.20;;;12.20;99.90;;;;;;5057076;28;20455;-71
2022/09/30 09:34:40;;;;;;;7.40;5.23;;;12.40;99.90;;;;;;5055437;28;20563;-70
2022/09/30 09:40:59;;;;;;;5.33;4.40;;;12.50;99.90;;;;;;5018017;28;20455;-70
2022/09/30 09:43:42;;;;;;;5.90;4.73;;;12.50;99.90;;;;;;5053517;28;20470;-70
2022/09/30 09:46:19;;;;;;;9.17;4.13;;;12.70;99.90;;;;;;5044170;28;20461;-71
2022/09/30 09:48:45;;;;;;;5.50;3.60;;;12.90;99.90;;;;;;5058819;28;20481;-70
2022/09/30 09:51:30;;;;;;;5.87;3.83;;;13.10;99.90;;;;;;5040194;28;20542;-71
2022/09/30 09:54:01;;;;;;;7.83;4.87;;;13.20;99.90;;;;;;5042402;28;20294;-70
2022/09/30 09:56:32;;;;;;;9.40;4.40;;;13.30;99.90;;;;;;5036257;28;20439;-71
2022/09/30 09:59:17;;;;;;;7.67;4.60;;;13.30;99.90;;;;;;5043455;28;20471;-70
2022/09/30 10:01:46;;;;;;;4.53;3.77;;;13.40;99.90;;;;;;5052345;28;20474;-70
2022/09/30 10:04:20;;;;;;;5.63;4.30;;;13.40;99.90;;;;;;5040501;28;20476;-70
2022/09/30 10:07:00;;;;;;;5.20;4.13;;;13.50;99.90;;;;;;5051972;28;20459;-71
2022/09/30 10:09:36;;;;;;;7.27;3.97;;;13.70;99.90;;;;;;5037672;28;20562;-70
2022/09/30 10:12:04;;;;;;;4.57;4.17;;;13.90;99.90;;;;;;5036586;28;20462;-71
2022/09/30 10:14:31;;;;;;;4.20;3.80;;;14.10;99.90;;;;;;5041263;28;20470;-69
2022/09/30 10:17:06;;;;;;;7.90;4.97;;;14.10;99.90;;;;;;5031948;28;20462;-70
2022/09/30 10:19:34;;;;;;;7.10;5.33;;;14.20;99.90;;;;;;5036231;28;20486;-71
2022/09/30 10:22:08;;;;;;;6.73;4.67;;;14.20;99.90;;;;;;5033367;28;20473;-70
2022/09/30 10:24:38;;;;;;;9.70;4.87;;;14.20;99.90;;;;;;5032841;28;20457;-71
2022/09/30 10:27:28;;;;;;;5.30;3.90;;;14.40;99.90;;;;;;5039030;28;20467;-70
2022/09/30 10:29:54;;;;;;;4.13;3.73;;;14.60;99.90;;;;;;5038287;28;20843;-71
2022/09/30 10:32:21;;;;;;;6.93;3.90;;;14.70;99.90;;;;;;5037188;28;20456;-70
2022/09/30 10:34:55;;;;;;;4.93;4.40;;;14.80;99.90;;;;;;5026007;28;20288;-70
2022/09/30 10:37:22;;;;;;;5.73;3.73;;;15.00;99.90;;;;;;5037764;28;20464;-70
2022/09/30 10:40:15;;;;;;;3.40;3.10;;;15.10;99.90;;;;;;5042821;28;20483;-70
2022/09/30 10:42:46;;;;;;;3.43;3.00;;;15.10;99.90;;;;;;5043131;28;21048;-71
2022/09/30 10:45:22;;;;;;;6.90;3.67;;;15.10;99.90;;;;;;5030495;28;20483;-70
2022/09/30 10:47:53;;;;;;;3.80;3.50;;;15.20;99.90;;;;;;5040531;28;20571;-70
2022/09/30 10:50:21;;;;;;;6.00;4.20;;;15.20;99.90;;;;;;5033805;28;20471;-70
2022/09/30 10:52:53;;;;;;;4.73;4.33;;;15.20;99.90;;;;;;5034623;28;20463;-70
2022/09/30 10:55:19;;;;;;;3.00;2.67;;;15.20;99.90;;;;;;5046068;28;20483;-70
2022/09/30 10:57:46;;;;;;;3.10;2.80;;;15.30;99.90;;;;;;5040881;28;20447;-71
2022/09/30 11:00:20;;;;;;;4.33;3.63;;;15.30;99.90;;;;;;5050795;28;20228;-71
2022/09/30 11:03:07;;;;;;;4.30;3.10;;;15.40;99.90;;;;;;5048406;28;20461;-71
2022/09/30 11:05:45;;;;;;;3.03;2.80;;;15.60;99.90;;;;;;5035688;28;20462;-71
2022/09/30 11:08:25;;;;;;;4.20;2.83;;;15.80;99.90;;;;;;5052484;28;20462;-71
2022/09/30 11:11:09;;;;;;;4.27;3.30;;;15.80;99.90;;;;;;5040780;28;21037;-71
2022/09/30 11:13:41;;;;;;;9.80;2.50;;;15.80;99.90;;;;;;5036316;28;20470;-70
2022/09/30 11:16:39;;;;;;;2.80;2.50;;;15.80;99.90;;;;;;5039088;28;20452;-71
2022/09/30 11:19:29;;;;;;;3.13;2.80;;;16.00;99.90;;;;;;5026069;28;20863;-70
2022/09/30 11:22:13;;;;;;;3.57;3.27;;;16.10;99.90;;;;;;5029959;28;20516;-71
2022/09/30 11:24:46;;;;;;;5.17;4.63;;;16.20;99.90;;;;;;5052911;28;20457;-70
2022/09/30 11:27:15;;;;;;;33.07;18.97;;;16.20;99.90;;;;;;5031895;28;20482;-71
2022/09/30 11:29:56;;;;;;;35.40;20.33;;;16.30;99.90;;;;;;5028313;27;20544;-70
2022/09/30 11:32:39;;;;;;;15.60;9.50;;;16.40;99.90;;;;;;4997295;28;20459;-70
2022/09/30 11:35:18;;;;;;;24.10;14.40;;;16.60;99.90;;;;;;5027513;28;20451;-70
2022/09/30 11:38:32;;;;;;;11.43;7.97;;;16.50;99.90;;;;;;5012833;28;20449;-70
2022/09/30 11:41:10;;;;;;;10.00;5.80;;;16.50;99.90;;;;;;5005192;28;20498;-70
2022/09/30 11:43:51;;;;;;;7.20;5.57;;;16.50;99.90;;;;;;5026936;28;20455;-70
2022/09/30 11:46:59;;;;;;;4.83;3.63;;;16.50;99.90;;;;;;5022112;28;20857;-70
2022/09/30 11:49:34;;;;;;;16.93;12.10;;;16.60;99.90;;;;;;5020293;28;20622;-70
2022/09/30 11:52:32;;;;;;;30.07;20.07;;;16.70;99.90;;;;;;5026960;28;20455;-70
2022/09/30 11:55:25;;;;;;;21.53;12.00;;;16.80;99.90;;;;;;5008315;28;20517;-70
2022/09/30 11:58:13;;;;;;;9.73;7.10;;;16.90;99.90;;;;;;5029409;28;20999;-70
2022/09/30 12:00:44;;;;;;;6.00;4.77;;;17.00;99.90;;;;;;5008780;28;20921;-70
2022/09/30 12:03:35;;;;;;;5.63;4.07;;;17.10;99.90;;;;;;5021362;28;20546;-70
2022/09/30 12:06:09;;;;;;;6.90;3.73;;;17.20;99.90;;;;;;5032549;28;20447;-70
2022/09/30 12:08:48;;;;;;;5.03;2.53;;;17.30;99.90;;;;;;5023353;28;20476;-70
2022/09/30 12:11:24;;;;;;;4.90;2.80;;;17.50;99.90;;;;;;5023219;28;20478;-70
2022/09/30 12:13:55;;;;;;;2.70;1.70;;;17.40;99.90;;;;;;5023593;28;20570;-69
2022/09/30 12:16:23;;;;;;;3.00;2.50;;;17.20;99.90;;;;;;5023250;28;20497;-70
2022/09/30 12:19:12;;;;;;;2.40;2.20;;;17.10;99.90;;;;;;5021234;28;20525;-70
2022/09/30 12:21:45;;;;;;;2.13;2.03;;;17.20;99.90;;;;;;5036927;28;20459;-70
2022/09/30 12:24:37;;;;;;;3.23;2.00;;;17.40;99.90;;;;;;5018732;28;20487;-70
2022/09/30 12:27:04;;;;;;;2.00;1.80;;;17.60;99.90;;;;;;5016883;28;20840;-70
2022/09/30 12:32:25;;;;;;;2.33;2.13;;;17.80;99.90;;;;;;5026781;28;20462;-70
2022/09/30 12:35:10;;;;;;;2.97;2.20;;;17.90;99.90;;;;;;5028914;28;20470;-70
2022/09/30 12:37:50;;;;;;;2.60;2.40;;;18.10;99.90;;;;;;5023332;28;20466;-71
2022/09/30 12:40:30;;;;;;;2.13;1.80;;;18.30;99.90;;;;;;5016194;28;20471;-70
2022/09/30 12:43:05;;;;;;;2.23;2.00;;;18.30;99.90;;;;;;5005666;28;20459;-70
2022/09/30 12:45:53;;;;;;;1.83;1.73;;;18.40;99.90;;;;;;5001041;28;20979;-71
2022/09/30 12:48:21;;;;;;;2.60;2.40;;;18.50;99.90;;;;;;5004335;28;20819;-70
2022/09/30 12:50:53;;;;;;;3.03;2.83;;;18.70;99.90;;;;;;5009820;28;20448;-70
2022/09/30 12:53:35;;;;;;;2.00;1.90;;;18.70;99.90;;;;;;5003217;28;20509;-70
2022/09/30 12:56:05;;;;;;;2.40;2.00;;;18.70;99.90;;;;;;5006116;28;20476;-70
2022/09/30 12:58:39;;;;;;;2.30;2.10;;;18.70;99.90;;;;;;5001542;28;20466;-70
2022/09/30 13:01:22;;;;;;;2.97;1.93;;;18.80;99.90;;;;;;5011401;28;20491;-70
2022/09/30 13:03:58;;;;;;;1.80;1.70;;;18.70;99.90;;;;;;5008040;28;20702;-70
2022/09/30 13:06:25;;;;;;;1.83;1.70;;;18.70;99.90;;;;;;5011915;28;20458;-70
2022/09/30 13:09:12;;;;;;;4.83;2.13;;;18.60;99.90;;;;;;5007125;28;20865;-70
2022/09/30 13:11:43;;;;;;;2.10;2.00;;;18.60;99.90;;;;;;5017771;28;20471;-69
2022/09/30 13:14:11;;;;;;;2.30;2.10;;;18.80;99.90;;;;;;5010212;28;20478;-71
2022/09/30 13:16:57;;;;;;;2.93;2.60;;;18.80;99.90;;;;;;5006630;28;20456;-70
2022/09/30 13:19:35;;;;;;;3.80;3.10;;;18.80;99.90;;;;;;5008369;28;20539;-70
2022/09/30 13:22:31;;;;;;;8.83;6.37;;;18.80;99.90;;;;;;5011716;28;21184;-68
2022/09/30 13:24:59;;;;;;;8.40;6.73;;;18.80;99.90;;;;;;5009250;28;20993;-69
2022/09/30 13:27:38;;;;;;;4.13;3.80;;;18.80;99.90;;;;;;5003430;28;20481;-71
2022/09/30 13:30:15;;;;;;;20.20;14.33;;;18.90;99.90;;;;;;4991684;28;20564;-70